Airfield :
LOGIN :

Register | Disclaimer

   EN    FR    IT 

 










Legend :    VFR   Marginal VFR   IFR   Intensive IFR   Very Intensive IFR
Visi :
Ceiling :
>= 8 km
>= 3000ft
5 to 8 km
1000 to 3000 ft
1500m to 5 km
500 to 1000 ft
800 to 1500m
200 to 500 ft
< 800m
< 200 ft
Symbols :   Thunderstorms  Fog  Heavy snow  Heavy precipitations  Wind > 20 kt
SIGMETs :     Misc.  Thunderstorms  Icing  Turbulence  Mountain Waves  Volcanic Ashes







- Airport Elevation : 1367 ft
- IATA code : FDH


EDNY - Friedrichshafen

CURRENT METAR :
  • 272250Z AUTO 03005KT 9999 // FEW250/// 20/13 Q1017

EXPIRED METARs :
  • 272220Z AUTO 05007KT 9999 // NCD 20/14 Q1017
  • 272150Z AUTO 04006KT 9999 // NCD 19/14 Q1017
  • 272120Z AUTO 04006KT 9999 // SCT150/// 21/14 Q1017
  • 272050Z 36007KT CAVOK 21/14 Q1017
  • 272020Z 03003KT 340V060 CAVOK 22/14 Q1017

TAF TAF EDNY
Valid from the 27 at 18:00 until the 28 at 18:00 UTC


271700Z 2718/2818 VRB03KT CAVOK
BECMG 2808/2810 23006KT
BECMG 2816/2818 VRB03KT
No reported NOTAMs for that airfield.



MET'MAP, your aeronautical weather chart ! - Copyright ORBIFLY December 2007 - Disclaimer

ORBIFLY MET'MAP TEAM :

Programming & Development : Alexandra Zaïnal
Concept & Development : Baudouin d'Aumeries
Co-Development & Prog : Marc-Olivier Méhu
Technical & hardware support : Manuel Goepfert

Contact : metmap@orbifly.com




SOURCES & CREDITS :

   NOAA